Terminal Aerodrome Forecast
Issued by NWS El Paso, TX

Home | Current Version | Previous Version | Text Only | Print | Product List | Glossary On
Versions: 1 2 3 4 5 6 7 8 9 10 11 12 13 14 15 16 17
000
FTUS44 KEPZ 042300
TAFELP
TAF
KELP 042337Z 0500/0524 30012G22KT P6SM VCTS SCT060CB BKN100 BKN200
     FM050300 03015G25KT P6SM VCSH BKN050 BKN090
     FM050500 07014KT P6SM VCSH SCT020 BKN040 OVC080
     FM051500 06010KT P6SM SCT020 BKN040
     FM052100 08008KT P6SM SCT030=

USA.gov is the U.S. government's official web portal to all federal, state and local government web resources and services.